Map

Track Data

SID SEASON NUMBER BASIN SUBBASIN NAME ISO_TIME NATURE LAT LON WMO_WIND WMO_PRES WMO_AGENCY TRACK_TYPE DIST2LAND LANDFALL IFLAG USA_AGENCY USA_ATCF_ID USA_LAT USA_LON USA_RECORD USA_STATUS USA_WIND USA_PRES USA_SSHS USA_R34_NE USA_R34_SE USA_R34_SW USA_R34_NW USA_R50_NE USA_R50_SE USA_R50_SW USA_R50_NW USA_R64_NE USA_R64_SE USA_R64_SW USA_R64_NW USA_POCI USA_ROCI USA_RMW USA_EYE TOKYO_LAT TOKYO_LON TOKYO_GRADE TOKYO_WIND TOKYO_PRES TOKYO_R50_DIR TOKYO_R50_LONG TOKYO_R50_SHORT TOKYO_R30_DIR TOKYO_R30_LONG TOKYO_R30_SHORT TOKYO_LAND CMA_LAT CMA_LON CMA_CAT CMA_WIND CMA_PRES HKO_LAT HKO_LON HKO_CAT HKO_WIND HKO_PRES NEWDELHI_LAT NEWDELHI_LON NEWDELHI_GRADE NEWDELHI_WIND NEWDELHI_PRES NEWDELHI_CI NEWDELHI_DP NEWDELHI_POCI REUNION_LAT REUNION_LON REUNION_TYPE REUNION_WIND REUNION_PRES REUNION_TNUM REUNION_CI REUNION_RMW REUNION_R34_NE REUNION_R34_SE REUNION_R34_SW REUNION_R34_NW REUNION_R50_NE REUNION_R50_SE REUNION_R50_SW REUNION_R50_NW REUNION_R64_NE REUNION_R64_SE REUNION_R64_SW REUNION_R64_NW BOM_LAT BOM_LON BOM_TYPE BOM_WIND BOM_PRES BOM_TNUM BOM_CI BOM_RMW BOM_R34_NE BOM_R34_SE BOM_R34_SW BOM_R34_NW BOM_R50_NE BOM_R50_SE BOM_R50_SW BOM_R50_NW BOM_R64_NE BOM_R64_SE BOM_R64_SW BOM_R64_NW BOM_ROCI BOM_POCI BOM_EYE BOM_POS_METHOD BOM_PRES_METHOD NADI_LAT NADI_LON NADI_CAT NADI_WIND NADI_PRES WELLINGTON_LAT WELLINGTON_LON WELLINGTON_WIND WELLINGTON_PRES DS824_LAT DS824_LON DS824_STAGE DS824_WIND DS824_PRES TD9636_LAT TD9636_LON TD9636_STAGE TD9636_WIND TD9636_PRES TD9635_LAT TD9635_LON TD9635_WIND TD9635_PRES TD9635_ROCI NEUMANN_LAT NEUMANN_LON NEUMANN_CLASS NEUMANN_WIND NEUMANN_PRES MLC_LAT MLC_LON MLC_CLASS MLC_WIND MLC_PRES USA_GUST BOM_GUST BOM_GUST_PER REUNION_GUST REUNION_GUST_PER USA_SEAHGT USA_SEARAD_NE USA_SEARAD_SE USA_SEARAD_SW USA_SEARAD_NW STORM_SPEED STORM_DIR
1937056S14062 1937 11 SI MM NOT_NAMED 1937-02-25 06:00:00 NR -14.2000 62.4000 reunion main 827 818 _____O________ -1 -14.2000 62.4000 99 9.90000 3 190
1937056S14062 1937 11 SI MM NOT_NAMED 1937-02-25 09:00:00 NR -14.3350 62.3721 main 818 794 _____P________ -1 -14.3350 62.3721 99 3 192
1937056S14062 1937 11 SI MM NOT_NAMED 1937-02-25 12:00:00 NR -14.4678 62.3361 main 794 785 _____P________ -1 -14.4678 62.3361 99 3 199
1937056S14062 1937 11 SI MM NOT_NAMED 1937-02-25 15:00:00 NR -14.5964 62.2840 main 785 767 _____P________ -1 -14.5964 62.2840 99 4 187
1937056S14062 1937 11 SI MM NOT_NAMED 1937-02-25 18:00:00 NR -14.8149 62.3062 main 767 752 _____P____O___ -1 -14.7186 62.2078 99 -15.2000 62.7000 7 4 189
1937056S14062 1937 11 SI MM NOT_NAMED 1937-02-25 21:00:00 NR -14.9522 62.2229 main 743 721 _____P____P___ -1 -14.8323 62.0993 99 -15.1919 62.4702 7 4 231
1937056S14062 1937 11 SI MM NOT_NAMED 1937-02-26 00:00:00 TS -15.0627 61.9924 main 721 701 _____P___OP___ -1 -14.9352 61.9506 99 -15.2000 61.5000 TC 35 -15.1870 62.2123 7 6 251
1937056S14062 1937 11 SI MM NOT_NAMED 1937-02-26 03:00:00 TS -15.1376 61.6533 main 701 661 _____P___PP___ -1 -15.0252 61.7535 99 -15.2602 60.9626 TC 35 -15.1887 61.8983 7 8 260
1937056S14062 1937 11 SI MM NOT_NAMED 1937-02-26 06:00:00 TS -15.1909 61.2000 reunion main 661 633 _____O___OO___ -1 -15.1000 61.5000 99 9.90000 -15.3000 60.4000 TC 35 -15.2000 61.5000 2 10 265
1937056S14062 1937 11 SI MM NOT_NAMED 1937-02-26 09:00:00 TS -15.2293 60.6616 main 633 608 _____P___PP___ -1 -15.1581 61.1848 99 -15.3075 59.7999 TC 35 -15.2223 61.0001 2 10 267
1937056S14062 1937 11 SI MM NOT_NAMED 1937-02-26 12:00:00 TS -15.2506 60.1463 main 594 573 _____P___OP___ -1 -15.2013 60.8137 99 -15.3000 59.2000 TC 35 -15.2506 60.4251 2 10 268
1937056S14062 1937 11 SI MM NOT_NAMED 1937-02-26 15:00:00 TS -15.2702 59.6169 main 573 557 _____P___PP___ -1 -15.2322 60.3955 99 -15.2998 58.6425 TC 35 -15.2785 59.8126 2 10 268
1937056S14062 1937 11 SI MM NOT_NAMED 1937-02-26 18:00:00 TS -15.2845 59.0796 main 557 545 _____P___OO___ -1 -15.2536 59.9388 99 -15.3000 58.1000 TC 35 -15.3000 59.2000 2 10 269
1937056S14062 1937 11 SI MM NOT_NAMED 1937-02-26 21:00:00 TS -15.2904 58.5327 main 543 538 _____P___PP___ -1 -15.2683 59.4523 99 -15.3000 57.5275 TC 35 -15.3030 58.6183 2 10 270
1937056S14062 1937 11 SI MM NOT_NAMED 1937-02-27 00:00:00 TS -15.2930 57.9973 main 538 537 _____P___OP___ -1 -15.2790 58.9446 99 -15.3000 57.0000 TC 35 -15.2999 58.0474 2 10 270
1937056S14062 1937 11 SI MM NOT_NAMED 1937-02-27 03:00:00 TS -15.2926 57.5015 main 537 537 _____P___PP___ -1 -15.2886 58.4243 99 -15.2923 56.5775 TC 35 -15.2969 57.5027 2 9 270
1937056S14062 1937 11 SI MM NOT_NAMED 1937-02-27 06:00:00 TS -15.3000 57.0333 reunion main 539 539 _____O___OO___ -1 -15.3000 57.9000 99 9.90000 -15.3000 56.2000 TC 35 -15.3000 57.0000 2 9 268
1937056S14062 1937 11 SI MM NOT_NAMED 1937-02-27 09:00:00 TS -15.3308 56.5835 main 545 541 _____P___PP___ -1 -15.3252 57.3936 99 -15.3499 55.8001 TC 35 -15.3172 56.5570 2 9 266
1937056S14062 1937 11 SI MM NOT_NAMED 1937-02-27 12:00:00 TS -15.3640 56.1432 main 546 546 _____P___OP___ -1 -15.3505 56.8745 99 -15.4000 55.4000 TC 35 -15.3417 56.1551 2 8 267
1937056S14062 1937 11 SI MM NOT_NAMED 1937-02-27 15:00:00 TS -15.3820 55.7079 main 557 514 _____P___PP___ -1 -15.3757 56.3482 99 -15.3999 54.9999 TC 35 -15.3704 55.7757 2 8 268
1937056S14062 1937 11 SI MM NOT_NAMED 1937-02-27 18:00:00 TS -15.4003 55.2734 main 514 471 _____P___OO___ -1 -15.4008 55.8201 99 -15.4000 54.6000 TC 35 -15.4000 55.4000 2 8 267
1937056S14062 1937 11 SI MM NOT_NAMED 1937-02-27 21:00:00 TS -15.4309 54.8371 main 461 418 _____P___PP___ -1 -15.4258 55.2957 99 -15.4424 54.2075 TC 35 -15.4247 55.0081 2 8 265
1937056S14062 1937 11 SI MM NOT_NAMED 1937-02-28 00:00:00 TS -15.4667 54.3985 main 418 375 _____P___OP___ -1 -15.4506 54.7806 99 -15.5000 53.8000 TC 35 -15.4495 54.6149 2 9 265
1937056S14062 1937 11 SI MM NOT_NAMED 1937-02-28 03:00:00 TS -15.5025 53.9507 main 375 321 _____P___PP___ -1 -15.4753 54.2802 99 -15.5575 53.3575 TC 35 -15.4746 54.2143 2 9 266
1937056S14062 1937 11 SI MM NOT_NAMED 1937-02-28 06:00:00 TS -15.5333 53.5000 reunion main 321 278 _____O___OO___ -1 -15.5000 53.8000 99 9.90000 -15.6000 52.9000 TC 35 -15.5000 53.8000 2 9 267
1937056S14062 1937 11 SI MM NOT_NAMED 1937-02-28 09:00:00 TS -15.5483 53.0434 main 268 226 _____P___PP___ -1 -15.5248 53.3087 99 -15.6074 52.4575 TC 35 -15.5127 53.3642 2 9 268
1937056S14062 1937 11 SI MM NOT_NAMED 1937-02-28 12:00:00 TS -15.5590 52.5816 main 226 172 _____P___OP___ -1 -15.5498 52.8302 99 -15.6000 52.0000 TC 35 -15.5273 52.9146 2 9 269
1937056S14062 1937 11 SI MM NOT_NAMED 1937-02-28 15:00:00 TS -15.5661 52.1071 main 172 130 _____P___PP___ -1 -15.5750 52.3712 99 -15.5700 51.4923 TC 35 -15.5533 52.4578 2 9 267
1937056S14062 1937 11 SI MM NOT_NAMED 1937-02-28 18:00:00 TS -15.6001 51.6461 main 120 82 _____P___OO___ -1 -15.6002 51.9382 99 -15.6000 51.0000 TC 35 -15.6000 52.0000 2 9 263
1937056S14062 1937 11 SI MM NOT_NAMED 1937-02-28 21:00:00 TS -15.6794 51.1878 main 82 48 _____P___PP___ -1 -15.6253 51.5379 99 -15.7625 50.5402 TC 35 -15.6504 51.4852 2 9 257
1937056S14062 1937 11 SI MM NOT_NAMED 1937-03-01 00:00:00 TS -15.7920 50.7858 main 48 24 _____P___OP___ -1 -15.6503 51.1770 99 -16.0000 50.2000 TC 35 -15.7256 50.9803 2 7 251
1937056S14062 1937 11 SI MM NOT_NAMED 1937-03-01 03:00:00 TS -15.9160 50.4791 main 24 10 _____P___PP___ -1 -15.6752 50.8621 99 -16.2349 50.0399 TC 35 -15.8380 50.5352 2 6 241
1937056S14062 1937 11 SI MM NOT_NAMED 1937-03-01 06:00:00 TS -16.0667 50.2667 reunion main 15 11 _____O___OO___ -1 -15.7000 50.6000 99 9.90000 -16.5000 50.0000 TC 35 -16.0000 50.2000 2 5 226
1937056S14062 1937 11 SI MM NOT_NAMED 1937-03-01 09:00:00 TS -16.2374 50.1360 main 21 21 _____P___PP___ -1 -15.6980 50.3886 99 -16.8000 49.9849 TC 35 -16.2322 50.0267 2 4 208
1937056S14062 1937 11 SI MM NOT_NAMED 1937-03-01 12:00:00 TS -16.4222 50.0704 main 30 21 _____P___OP___ -1 -15.6932 50.2302 99 -17.1000 50.0000 TC 35 -16.5118 49.9646 2 4 194
1937056S14062 1937 11 SI MM NOT_NAMED 1937-03-01 15:00:00 TS -16.6031 50.0375 main 21 21 _____P___PP___ -1 -15.6910 50.1177 99 -17.3650 50.0000 TC 35 -16.8106 49.9704 2 4 188
1937056S14062 1937 11 SI MM NOT_NAMED 1937-03-01 18:00:00 TS -16.7752 50.0249 main 21 21 _____P___OO___ -1 -15.6965 50.0443 99 -17.6000 50.0000 TC 35 -17.1000 50.0000 2 3 186
1937056S14062 1937 11 SI MM NOT_NAMED 1937-03-01 21:00:00 TS -16.8898 50.0005 main 24 24 _____P___PP___ -1 -15.7150 50.0028 99 -17.7475 49.9926 TC 35 -17.2825 49.9736 2 3 190
1937056S14062 1937 11 SI MM NOT_NAMED 1937-03-02 00:00:00 TS -17.0479 49.9927 main 30 30 _____P___OP___ -1 -15.7516 49.9862 99 -18.0000 50.0000 TC 35 -17.4600 49.9628 2 4 0
1937056S14062 1937 11 SI MM NOT_NAMED 1937-03-02 03:00:00 TS -17.3325 50.0040 main 59 52 _____P___PP___ -1 -15.8116 49.9876 99 -18.5475 50.0350 TC 35 -17.6825 49.9706 2 7 176
1937056S14062 1937 11 SI MM NOT_NAMED 1937-03-02 06:00:00 TS -17.7000 50.0333 reunion main 52 52 _____O___OO___ -1 -15.9000 50.0000 99 9.90000 -19.2000 50.1000 TC 35 -18.0000 50.0000 2 10 176
1937056S14062 1937 11 SI MM NOT_NAMED 1937-03-02 09:00:00 TS -18.3077 50.0775 main 74 74 _________PP___ -1 99 -19.7725 50.1999 TC 35 -18.4988 50.0571 2 13 175
1937056S14062 1937 11 SI MM NOT_NAMED 1937-03-02 12:00:00 TS -19.0256 50.1517 main 110 110 _________OP___ -1 99 -20.3000 50.3000 TC 35 -19.0901 50.1344 2 16 174
1937056S14062 1937 11 SI MM NOT_NAMED 1937-03-02 15:00:00 TS -19.8412 50.2394 main 142 142 _________PP___ -1 99 -20.7725 50.3576 TC 35 -19.7114 50.2196 2 17 174
1937056S14062 1937 11 SI MM NOT_NAMED 1937-03-02 18:00:00 TS -20.7500 50.3500 main 184 174 _________OO___ -1 99 -21.2000 50.4000 TC 35 -20.3000 50.3000 2 14 174
1937056S14062 1937 11 SI MM NOT_NAMED 1937-03-02 21:00:00 TS -21.1840 50.3941 main 207 207 _________PP___ -1 99 -21.6000 50.4426 TC 35 -20.7680 50.3455 2 9 174
1937056S14062 1937 11 SI MM NOT_NAMED 1937-03-03 00:00:00 TS -21.5974 50.4429 main 217 217 _________OP___ -1 99 -22.0000 50.5000 TC 35 -21.1948 50.3857 2 9 173
1937056S14062 1937 11 SI MM NOT_NAMED 1937-03-03 03:00:00 TS -22.0246 50.5090 main 236 236 _________PP___ -1 99 -22.4500 50.5850 TC 35 -21.5993 50.4331 2 9 170
1937056S14062 1937 11 SI MM NOT_NAMED 1937-03-03 06:00:00 TS -22.4500 50.6000 reunion main 256 259 _________OO___ -1 99 -22.9000 50.7000 TC 35 -22.0000 50.5000 2 9 166
1937056S14062 1937 11 SI MM NOT_NAMED 1937-03-03 09:00:00 TS -22.8782 50.7343 main 284 284 _________PP___ -1 99 -23.3150 50.8574 TC 35 -22.4413 50.6112 2 9 163
1937056S14062 1937 11 SI MM NOT_NAMED 1937-03-03 12:00:00 TS -23.2900 50.8710 main 319 319 _________OP___ -1 99 -23.7000 51.0000 TC 35 -22.8801 50.7420 2 8 165
1937056S14062 1937 11 SI MM NOT_NAMED 1937-03-03 15:00:00 TS -23.6844 50.9673 main 337 337 _________PP___ -1 99 -24.0650 51.0577 TC 35 -23.3038 50.8768 2 8 168
1937056S14062 1937 11 SI MM NOT_NAMED 1937-03-03 18:00:00 TS -24.0500 51.0500 main 352 342 _________OO___ -1 99 -24.4000 51.1000 TC 35 -23.7000 51.0000 2 7 168
1937056S14062 1937 11 SI MM NOT_NAMED 1937-03-03 21:00:00 TS -24.3690 51.1295 main 363 363 _________PP___ -1 99 -24.6925 51.1851 TC 35 -24.0455 51.0739 2 7 167
1937056S14062 1937 11 SI MM NOT_NAMED 1937-03-04 00:00:00 TS -24.6824 51.2180 main 382 382 _________OP___ -1 99 -25.0000 51.3000 TC 35 -24.3648 51.1361 2 7 165
1937056S14062 1937 11 SI MM NOT_NAMED 1937-03-04 03:00:00 TS -25.0346 51.3201 main 400 400 _________PP___ -1 99 -25.3925 51.4350 TC 35 -24.6767 51.2052 2 8 164
1937056S14062 1937 11 SI MM NOT_NAMED 1937-03-04 06:00:00 TS -25.4000 51.4500 reunion main 433 423 _________OO___ -1 99 -25.8000 51.6000 TC 35 -25.0000 51.3000 2 8 159
1937056S14062 1937 11 SI MM NOT_NAMED 1937-03-04 09:00:00 TS -25.7690 51.6250 main 456 456 _________PP___ -1 99 -26.1650 51.8000 TC 35 -25.3729 51.4499 2 8 156
1937056S14062 1937 11 SI MM NOT_NAMED 1937-03-04 12:00:00 TS -26.1288 51.8135 main 486 486 _________OP___ -1 99 -26.5000 52.0000 TC 35 -25.7576 51.6270 2 8 155
1937056S14062 1937 11 SI MM NOT_NAMED 1937-03-04 15:00:00 TS -26.4730 51.9866 main 518 518 _________PP___ -1 99 -26.8075 52.1577 TC 35 -26.1385 51.8156 2 7 156
1937056S14062 1937 11 SI MM NOT_NAMED 1937-03-04 18:00:00 TS -26.7571 52.1286 main 538 538 _________OO___ -1 99 -27.1000 52.3000 TC 35 -26.5000 52.0000 2 6 156
1937056S14062 1937 11 SI MM NOT_NAMED 1937-03-04 21:00:00 TS -27.0196 52.2608 main 565 534 _________PP___ -1 99 -27.3975 52.4473 TC 35 -26.8306 52.1676 2 1 348
1937056S14062 1937 11 SI MM NOT_NAMED 1937-03-05 00:00:00 TS -26.6230 52.1005 main 531 482 _________OP___ -1 99 -27.7000 52.6000 TC 35 -27.1350 52.3200 2 12 338
1937056S14062 1937 11 SI MM NOT_NAMED 1937-03-05 03:00:00 NR -25.9442 51.7633 main 478 449 __________P___ -1 99 TC -27.4219 52.4623 2 11 334
1937056S14062 1937 11 SI MM NOT_NAMED 1937-03-05 06:00:00 NR -25.6000 51.5500 reunion main 449 419 _____O____O___ -1 -24.9000 51.2000 99 9.90000 -27.7000 52.6000 2 7 330
1937056S14062 1937 11 SI MM NOT_NAMED 1937-03-05 09:00:00 NR -25.3047 51.3510 main 419 419 _____P________ -1 -25.2777 51.3645 99 2 1 201
1937056S14062 1937 11 SI MM NOT_NAMED 1937-03-05 12:00:00 NR -25.6827 51.5161 main 443 443 _____P________ -1 -25.6393 51.5376 99 2 8 157
1937056S14062 1937 11 SI MM NOT_NAMED 1937-03-05 15:00:00 NR -26.0377 51.6934 main 472 472 _____P________ -1 -25.9873 51.7185 99 2 8 155
1937056S14062 1937 11 SI MM NOT_NAMED 1937-03-05 18:00:00 NR -26.3735 51.8813 main 505 505 _____P________ -1 -26.3238 51.9059 99 7 152
1937056S14062 1937 11 SI MM NOT_NAMED 1937-03-05 21:00:00 NR -26.6938 52.0777 main 534 534 _____P________ -1 -26.6511 52.0989 99 7 150
1937056S14062 1937 11 SI MM NOT_NAMED 1937-03-06 00:00:00 NR -27.0025 52.2809 main 565 565 _____P________ -1 -26.9714 52.2963 99 7 149
1937056S14062 1937 11 SI MM NOT_NAMED 1937-03-06 03:00:00 NR -27.3033 52.4890 main 596 596 _____P________ -1 -27.2870 52.4970 99 7 148
1937056S14062 1937 11 SI MM NOT_NAMED 1937-03-06 06:00:00 NR -27.6000 52.7000 reunion main 628 _____O________ -1 -27.6000 52.7000 99 9.90000 7 148

About IBTrACS Database

This database is a web-friendly format of International Best Track Archive for Climate Stewardship (IBTrACS), a global best track data archive curated by NOAA dating back to 1842.

Updated: 2021-11-26